Time;durP1;ratioP1;P1;durP2;ratioP2;P2;SDS_P1;SDS_P2;PMS_P1;PMS_P2;Temp;Humidity;BMP_temperature;BMP_pressure;BME280_temperature;BME280_humidity;BME280_pressure;Samples;Min_cycle;Max_cycle;Signal;HPM_P1;HPM_P2
2022/03/28 00:00:46;;;;;;;8.95;5.03;;;;;;;6.04;100.00;102948.06;6151072;23;20323;-78
2022/03/28 00:03:15;;;;;;;9.55;4.00;;;;;;;6.02;100.00;102941.84;6211015;23;20367;-78
2022/03/28 00:05:43;;;;;;;4.05;3.28;;;;;;;6.01;100.00;102950.53;6212029;23;20024;-77
2022/03/28 00:08:12;;;;;;;6.47;3.70;;;;;;;6.01;100.00;102937.47;6175342;23;20221;-77
2022/03/28 00:10:40;;;;;;;6.18;4.18;;;;;;;6.02;100.00;102941.84;6186622;23;20447;-77
2022/03/28 00:13:09;;;;;;;7.68;4.65;;;;;;;6.02;100.00;102936.63;6185342;23;20150;-77
2022/03/28 00:15:38;;;;;;;6.93;5.03;;;;;;;6.01;100.00;102933.91;6168275;23;20346;-77
2022/03/28 00:18:08;;;;;;;7.15;5.18;;;;;;;5.98;100.00;102923.31;6212205;23;20016;-77
2022/03/28 00:20:38;;;;;;;9.98;4.97;;;;;;;5.97;100.00;102919.78;6180543;23;20032;-77
2022/03/28 00:23:06;;;;;;;6.80;4.80;;;;;;;5.92;100.00;102918.59;6185012;23;20528;-77
2022/03/28 00:25:35;;;;;;;8.48;4.82;;;;;;;5.91;100.00;102915.88;6189964;23;20020;-77
2022/03/28 00:28:04;;;;;;;7.30;5.82;;;;;;;5.89;100.00;102915.78;6181881;23;20009;-77
2022/03/28 00:30:33;;;;;;;5.35;4.20;;;;;;;5.90;100.00;102911.44;6142270;23;20025;-77
2022/03/28 00:33:02;;;;;;;7.07;4.80;;;;;;;5.89;100.00;102907.06;6183594;23;20028;-77
2022/03/28 00:35:35;;;;;;;11.57;4.88;;;;;;;5.85;100.00;102900.75;6213574;23;20108;-77
2022/03/28 00:38:04;;;;;;;5.05;4.15;;;;;;;5.84;100.00;102902.47;6209188;23;20509;-78
2022/03/28 00:40:33;;;;;;;4.95;4.30;;;;;;;5.79;100.00;102888.22;6188917;23;20021;-76
2022/03/28 00:43:05;;;;;;;10.43;4.15;;;;;;;5.76;100.00;102889.75;6206698;23;20472;-78
2022/03/28 00:45:35;;;;;;;6.63;3.60;;;;;;;5.71;100.00;102878.13;6165063;23;20020;-77
2022/03/28 00:48:06;;;;;;;5.40;4.00;;;;;;;5.67;100.00;102869.22;6198666;23;20013;-78
2022/03/28 00:50:35;;;;;;;8.50;5.30;;;;;;;5.64;100.00;102875.19;6216079;23;20024;-77
2022/03/28 00:53:06;;;;;;;13.82;4.85;;;;;;;5.62;100.00;102862.84;6201157;23;20017;-78
2022/03/28 00:55:34;;;;;;;8.25;5.55;;;;;;;5.61;100.00;102874.13;6216696;23;20020;-78
2022/03/28 00:58:03;;;;;;;9.02;6.72;;;;;;;5.61;100.00;102871.50;6157841;23;20016;-78
2022/03/28 01:00:32;;;;;;;9.90;6.85;;;;;;;5.59;100.00;102865.28;6206244;23;20350;-77
2022/03/28 01:03:01;;;;;;;6.47;5.40;;;;;;;5.58;100.00;102863.50;6198373;23;20450;-78
2022/03/28 01:05:31;;;;;;;9.70;5.65;;;;;;;5.55;100.00;102865.94;6187405;23;20027;-77
2022/03/28 01:08:00;;;;;;;11.45;5.85;;;;;;;5.56;100.00;102859.91;6189532;23;20469;-78
2022/03/28 01:10:31;;;;;;;8.63;5.93;;;;;;;5.53;100.00;102859.72;6182202;23;20033;-78
2022/03/28 01:13:00;;;;;;;5.55;5.03;;;;;;;5.55;100.00;102858.09;6171263;23;20036;-78
2022/03/28 01:15:28;;;;;;;5.53;5.03;;;;;;;5.54;100.00;102851.97;6217618;23;20354;-78
2022/03/28 01:18:06;;;;;;;5.88;3.95;;;;;;;5.53;100.00;102838.78;6165961;23;20016;-78
2022/03/28 01:20:39;;;;;;;8.40;3.58;;;;;;;5.51;100.00;102841.31;6218323;23;20029;-77
2022/03/28 01:23:09;;;;;;;6.13;4.28;;;;;;;5.53;100.00;102837.06;6211289;23;20182;-77
2022/03/28 01:25:38;;;;;;;4.68;4.28;;;;;;;5.55;100.00;102843.28;6182877;23;20020;-78
2022/03/28 01:28:06;;;;;;;13.90;3.97;;;;;;;5.55;100.00;102840.66;6211187;23;20508;-78
2022/03/28 01:30:34;;;;;;;7.13;4.75;;;;;;;5.53;100.00;102844.03;6203265;23;20024;-78
2022/03/28 01:33:03;;;;;;;7.60;4.75;;;;;;;5.51;100.00;102838.69;6197761;23;20020;-77
2022/03/28 01:35:31;;;;;;;5.35;4.85;;;;;;;5.50;100.00;102841.22;6215848;23;20029;-77
2022/03/28 01:38:02;;;;;;;5.95;4.13;;;;;;;5.46;100.00;102841.06;6178640;23;20347;-78
2022/03/28 01:40:31;;;;;;;5.45;4.43;;;;;;;5.39;100.00;102833.69;6216024;23;20446;-77
2022/03/28 01:43:00;;;;;;;5.32;3.78;;;;;;;5.35;100.00;102831.72;6237859;23;20442;-78
2022/03/28 01:45:31;;;;;;;3.30;3.00;;;;;;;5.30;100.00;102833.19;6188288;23;20025;-78
2022/03/28 01:48:00;;;;;;;2.63;2.50;;;;;;;5.25;100.00;102827.69;6178073;23;20017;-77
2022/03/28 01:50:28;;;;;;;2.13;2.03;;;;;;;5.19;100.00;102819.50;6190079;23;20024;-78
2022/03/28 01:52:57;;;;;;;2.20;2.05;;;;;;;5.16;100.00;102819.34;6214016;23;20016;-78
2022/03/28 01:55:25;;;;;;;2.80;2.60;;;;;;;5.18;100.00;102815.09;6190489;23;20232;-78
2022/03/28 01:57:54;;;;;;;2.97;2.60;;;;;;;5.20;100.00;102807.34;6189014;23;20019;-78
2022/03/28 02:00:26;;;;;;;3.20;2.90;;;;;;;5.21;100.00;102807.41;6155771;23;20237;-77
2022/03/28 02:02:55;;;;;;;4.05;3.65;;;;;;;5.22;100.00;102797.88;6210406;23;20048;-77
2022/03/28 02:05:24;;;;;;;5.35;3.20;;;;;;;5.24;100.00;102793.63;6190592;23;20241;-77
2022/03/28 02:07:52;;;;;;;5.43;3.40;;;;;;;5.26;100.00;102800.72;6215151;23;20024;-78
2022/03/28 02:10:22;;;;;;;9.70;3.80;;;;;;;5.30;100.00;102795.69;6213381;23;20154;-78
2022/03/28 02:12:51;;;;;;;5.37;3.50;;;;;;;5.31;100.00;102787.91;6206040;23;20426;-77
2022/03/28 02:15:21;;;;;;;3.15;2.55;;;;;;;5.30;100.00;102791.34;6209930;23;20631;-78
2022/03/28 02:17:49;;;;;;;4.60;2.97;;;;;;;5.30;100.00;102793.97;6211927;23;20463;-78
2022/03/28 02:20:19;;;;;;;3.80;2.58;;;;;;;5.30;100.00;102787.84;6199375;23;20189;-78
2022/03/28 02:22:47;;;;;;;2.60;2.40;;;;;;;5.31;100.00;102785.28;6211942;23;20071;-78
2022/03/28 02:25:17;;;;;;;2.10;2.00;;;;;;;5.34;100.00;102787.19;6152883;23;20020;-78
2022/03/28 02:27:45;;;;;;;1.75;1.65;;;;;;;5.30;100.00;102786.13;6190690;23;20021;-78
2022/03/28 02:30:14;;;;;;;1.50;1.50;;;;;;;5.30;100.00;102788.72;6177012;23;20020;-77
2022/03/28 02:32:43;;;;;;;1.40;1.40;;;;;;;5.28;100.00;102786.03;6216197;23;20032;-78
2022/03/28 02:35:12;;;;;;;1.30;1.20;;;;;;;5.28;100.00;102782.53;6194489;23;20767;-77
2022/03/28 02:37:40;;;;;;;1.65;1.35;;;;;;;5.29;100.00;102776.47;6215613;23;20020;-78
2022/03/28 02:40:10;;;;;;;1.77;1.48;;;;;;;5.28;100.00;102774.69;6210116;23;20035;-78
2022/03/28 02:42:38;;;;;;;1.50;1.40;;;;;;;5.30;100.00;102778.28;6217209;23;20021;-77
2022/03/28 02:45:08;;;;;;;1.45;1.25;;;;;;;5.29;100.00;102776.47;6185472;23;20495;-78
2022/03/28 02:47:36;;;;;;;1.80;1.70;;;;;;;5.31;100.00;102785.28;6216012;23;20027;-78
2022/03/28 02:50:06;;;;;;;1.80;1.70;;;;;;;5.32;100.00;102774.03;6182493;23;20013;-78
2022/03/28 02:52:34;;;;;;;2.28;2.08;;;;;;;5.32;100.00;102776.66;6204927;23;20024;-78
2022/03/28 02:55:03;;;;;;;3.10;2.05;;;;;;;5.32;100.00;102770.53;6177238;23;20027;-77
2022/03/28 02:57:31;;;;;;;2.58;2.28;;;;;;;5.30;100.00;102766.94;6191468;23;20020;-77
2022/03/28 03:00:00;;;;;;;2.88;2.35;;;;;;;5.27;100.00;102768.56;6177083;23;20027;-78
2022/03/28 03:02:28;;;;;;;5.45;3.53;;;;;;;5.25;100.00;102758.81;6180669;23;20021;-77
2022/03/28 03:05:00;;;;;;;3.95;2.33;;;;;;;5.25;100.00;102758.81;6159617;23;20025;-77
2022/03/28 03:07:28;;;;;;;3.58;3.28;;;;;;;5.26;100.00;102758.00;6202711;23;20028;-77
2022/03/28 03:09:56;;;;;;;3.13;2.92;;;;;;;5.27;100.00;102757.19;6214075;23;20023;-77
2022/03/28 03:12:25;;;;;;;3.80;3.30;;;;;;;5.30;100.00;102749.53;6195146;23;20214;-77
2022/03/28 03:14:54;;;;;;;3.20;3.00;;;;;;;5.31;100.00;102753.03;6218479;23;20020;-78
2022/03/28 03:17:22;;;;;;;3.15;2.95;;;;;;;5.30;100.00;102752.13;6193239;23;20098;-77
2022/03/28 03:19:51;;;;;;;3.90;3.53;;;;;;;5.29;100.00;102747.72;6180637;23;20023;-78
2022/03/28 03:22:19;;;;;;;3.60;3.30;;;;;;;5.31;100.00;102737.34;6204408;23;20505;-77
2022/03/28 03:24:48;;;;;;;4.53;4.13;;;;;;;5.30;100.00;102736.44;6218782;23;20016;-77
2022/03/28 03:27:17;;;;;;;3.53;3.22;;;;;;;5.29;100.00;102750.31;6217580;23;20012;-78
2022/03/28 03:29:47;;;;;;;2.90;2.60;;;;;;;5.27;100.00;102738.88;6220889;23;20043;-78
2022/03/28 03:32:15;;;;;;;2.80;2.60;;;;;;;5.27;100.00;102741.50;6213957;23;20353;-78
2022/03/28 03:34:44;;;;;;;2.63;2.42;;;;;;;5.27;100.00;102731.03;6136510;23;20458;-77
2022/03/28 03:37:12;;;;;;;2.90;2.70;;;;;;;5.27;100.00;102725.81;6213073;23;20012;-77
2022/03/28 03:39:40;;;;;;;4.50;3.70;;;;;;;5.26;100.00;102719.69;6158346;23;20323;-78
2022/03/28 03:42:11;;;;;;;4.65;4.05;;;;;;;5.28;100.00;102717.16;6182120;23;20130;-78
2022/03/28 03:44:39;;;;;;;3.80;3.50;;;;;;;5.26;100.00;102719.69;6186041;23;20020;-77
2022/03/28 03:47:08;;;;;;;5.60;5.07;;;;;;;5.27;100.00;102718.91;6154348;23;20150;-77
2022/03/28 03:49:36;;;;;;;4.10;3.80;;;;;;;5.28;100.00;102728.50;6194272;23;20016;-77
2022/03/28 03:52:05;;;;;;;5.93;5.32;;;;;;;5.32;100.00;102718.25;6210580;23;20027;-77
2022/03/28 03:54:34;;;;;;;7.47;5.38;;;;;;;5.33;100.00;102720.94;6195665;23;20031;-77
2022/03/28 03:57:02;;;;;;;6.15;5.55;;;;;;;5.34;100.00;102719.22;6241290;23;20024;-77
2022/03/28 03:59:31;;;;;;;10.63;6.22;;;;;;;5.36;100.00;102709.75;6194732;23;20012;-77
2022/03/28 04:01:59;;;;;;;6.55;5.95;;;;;;;5.37;100.00;102708.91;6215709;23;20076;-77
2022/03/28 04:04:28;;;;;;;9.55;8.48;;;;;;;5.37;100.00;102706.28;6218612;23;20016;-77
2022/03/28 04:06:57;;;;;;;9.20;7.43;;;;;;;5.37;100.00;102704.59;6240927;23;20024;-77
2022/03/28 04:09:25;;;;;;;9.10;7.57;;;;;;;5.36;100.00;102704.50;6229003;23;20008;-77
2022/03/28 04:11:54;;;;;;;7.22;5.20;;;;;;;5.33;100.00;102700.03;6243984;23;20028;-77
2022/03/28 04:14:22;;;;;;;5.00;4.40;;;;;;;5.35;100.00;102705.31;6217205;23;20211;-77
2022/03/28 04:16:51;;;;;;;5.57;4.80;;;;;;;5.35;100.00;102705.31;6192998;23;20024;-77
2022/03/28 04:19:19;;;;;;;4.65;4.25;;;;;;;5.32;100.00;102698.22;6191193;23;20258;-77
2022/03/28 04:21:48;;;;;;;8.38;6.10;;;;;;;5.30;100.00;102694.63;6207637;23;20442;-77
2022/03/28 04:24:20;;;;;;;7.28;5.63;;;;;;;5.29;100.00;102713.72;6173531;23;20027;-77
2022/03/28 04:26:49;;;;;;;8.63;6.30;;;;;;;5.27;100.00;102700.59;6218428;23;20027;-77
2022/03/28 04:29:17;;;;;;;8.80;7.88;;;;;;;5.25;100.00;102697.00;6190913;23;20220;-77
2022/03/28 04:31:46;;;;;;;7.43;5.82;;;;;;;5.24;100.00;102684.72;6185175;23;20027;-77
2022/03/28 04:34:14;;;;;;;4.97;3.47;;;;;;;5.25;100.00;102689.16;6155980;23;20020;-77
2022/03/28 04:36:43;;;;;;;4.53;4.13;;;;;;;5.25;100.00;102683.00;6214847;23;20028;-77
2022/03/28 04:39:11;;;;;;;7.13;5.82;;;;;;;5.25;100.00;102680.41;6201797;23;20023;-78
2022/03/28 04:41:43;;;;;;;6.15;5.40;;;;;;;5.25;100.00;102678.69;6206444;23;20016;-77
2022/03/28 04:44:12;;;;;;;5.82;5.30;;;;;;;5.23;100.00;102682.91;6161979;23;20024;-78
2022/03/28 04:46:40;;;;;;;4.72;4.32;;;;;;;5.23;100.00;102688.16;6186188;23;20020;-77
2022/03/28 04:49:10;;;;;;;4.65;3.50;;;;;;;5.23;100.00;102689.88;6214869;23;20457;-78
2022/03/28 04:51:38;;;;;;;6.13;4.80;;;;;;;5.26;100.00;102682.22;6195648;23;20027;-77
2022/03/28 04:54:08;;;;;;;6.07;5.30;;;;;;;5.30;100.00;102689.41;6186489;23;20114;-77
2022/03/28 04:56:36;;;;;;;3.30;3.10;;;;;;;5.30;100.00;102678.06;6233824;23;20694;-77
2022/03/28 04:59:05;;;;;;;3.33;3.13;;;;;;;5.27;100.00;102671.84;6214538;23;20020;-77
2022/03/28 05:01:33;;;;;;;3.97;3.20;;;;;;;5.27;100.00;102670.91;6219264;23;20031;-77
2022/03/28 05:04:02;;;;;;;3.30;2.90;;;;;;;5.26;100.00;102677.88;6189983;23;20023;-77
2022/03/28 05:06:31;;;;;;;3.38;2.92;;;;;;;5.26;100.00;102671.75;6185825;23;20462;-77
2022/03/28 05:08:59;;;;;;;3.95;3.38;;;;;;;5.28;100.00;102667.50;6182517;23;20019;-77
2022/03/28 05:11:29;;;;;;;4.97;2.95;;;;;;;5.29;100.00;102661.44;6232005;23;20028;-77
2022/03/28 05:14:00;;;;;;;3.42;3.20;;;;;;;5.28;100.00;102668.41;6216938;23;20016;-77
2022/03/28 05:16:30;;;;;;;3.25;2.95;;;;;;;5.28;100.00;102657.03;6219422;23;20027;-77
2022/03/28 05:18:59;;;;;;;3.50;3.20;;;;;;;5.29;100.00;102653.59;6243016;23;20024;-77
2022/03/28 05:21:28;;;;;;;4.35;3.92;;;;;;;5.28;100.00;102657.03;6219732;23;20327;-77
2022/03/28 05:23:56;;;;;;;5.00;4.50;;;;;;;5.30;100.00;102657.13;6216716;23;20016;-77
2022/03/28 05:26:26;;;;;;;5.28;4.40;;;;;;;5.31;100.00;102656.31;6161075;23;20075;-77
2022/03/28 05:28:54;;;;;;;4.50;4.00;;;;;;;5.31;100.00;102648.47;6215890;23;20016;-77
2022/03/28 05:31:23;;;;;;;5.07;4.60;;;;;;;5.31;100.00;102654.56;6181800;23;20016;-77
2022/03/28 05:33:52;;;;;;;4.70;4.30;;;;;;;5.28;100.00;102644.88;6214342;23;20316;-77
2022/03/28 05:36:22;;;;;;;4.53;4.13;;;;;;;5.25;100.00;102635.97;6219593;23;20016;-77
2022/03/28 05:38:50;;;;;;;4.07;3.50;;;;;;;5.22;100.00;102630.59;6181639;23;20142;-77
2022/03/28 05:41:18;;;;;;;6.75;3.55;;;;;;;5.21;100.00;102631.38;6232670;23;20294;-77
2022/03/28 05:43:47;;;;;;;6.40;4.47;;;;;;;5.22;100.00;102633.19;6191279;23;20016;-77
2022/03/28 05:46:18;;;;;;;3.50;3.30;;;;;;;5.23;100.00;102622.81;6179064;23;20464;-77
2022/03/28 05:48:53;;;;;;;4.82;3.95;;;;;;;5.26;100.00;102637.78;6189216;23;20508;-77
2022/03/28 05:51:22;;;;;;;6.13;5.47;;;;;;;5.27;100.00;102640.47;6239990;23;20023;-77
2022/03/28 05:53:51;;;;;;;7.05;5.97;;;;;;;5.32;100.00;102639.81;6216754;23;20079;-77
2022/03/28 05:56:19;;;;;;;8.55;7.65;;;;;;;5.34;100.00;102643.41;6219949;23;20016;-77
2022/03/28 05:58:48;;;;;;;9.75;7.72;;;;;;;5.32;100.00;102638.09;6153112;23;20206;-77
2022/03/28 06:01:16;;;;;;;7.88;7.10;;;;;;;5.31;100.00;102636.28;6184589;23;20012;-77
2022/03/28 06:03:45;;;;;;;7.90;7.10;;;;;;;5.31;100.00;102638.00;6238111;23;20553;-77
2022/03/28 06:06:14;;;;;;;7.40;6.70;;;;;;;5.32;100.00;102643.31;6184152;23;20016;-77
2022/03/28 06:08:42;;;;;;;7.15;6.43;;;;;;;5.31;100.00;102632.78;6241418;23;20393;-77
2022/03/28 06:11:11;;;;;;;8.95;6.53;;;;;;;5.33;100.00;102638.97;6165416;23;20020;-76
2022/03/28 06:13:42;;;;;;;7.88;6.28;;;;;;;5.32;100.00;102638.09;6187689;23;20025;-77
2022/03/28 06:16:10;;;;;;;;;;;;;;;5.32;100.00;102639.81;6192240;23;20019;-77
2022/03/28 06:18:42;;;;;;;5.80;5.30;;;;;;;5.31;100.00;102636.28;6181869;23;19919;-77
2022/03/28 06:21:11;;;;;;;9.23;6.68;;;;;;;5.31;100.00;102632.78;6204593;23;20040;-77
2022/03/28 06:23:39;;;;;;;8.15;6.55;;;;;;;5.29;100.00;102627.47;6203307;23;20226;-77
2022/03/28 06:26:10;;;;;;;14.05;9.27;;;;;;;5.26;100.00;102624.69;6214112;23;20358;-77
2022/03/28 06:28:39;;;;;;;;;;;;;;;5.25;100.00;102612.44;6188979;23;20148;-77
2022/03/28 06:31:08;;;;;;;7.90;6.22;;;;;;;5.26;100.00;102625.59;6166514;23;19919;-77
2022/03/28 06:33:36;;;;;;;7.82;7.07;;;;;;;5.28;100.00;102617.84;6202933;23;20035;-77
2022/03/28 06:36:05;;;;;;;7.68;6.75;;;;;;;5.30;100.00;102618.81;6210187;23;20021;-77
2022/03/28 06:38:34;;;;;;;8.95;7.97;;;;;;;5.34;100.00;102606.81;6166473;23;20552;-77
2022/03/28 06:41:03;;;;;;;8.65;7.78;;;;;;;5.35;100.00;102617.34;6191247;23;20025;-77
2022/03/28 06:43:31;;;;;;;10.07;7.88;;;;;;;5.36;100.00;102621.75;6162837;23;20036;-77
2022/03/28 06:46:00;;;;;;;10.70;7.63;;;;;;;5.34;100.00;102607.69;6184785;23;20024;-77
2022/03/28 06:48:28;;;;;;;11.95;8.15;;;;;;;5.36;100.00;102598.22;6177690;23;20016;-77
2022/03/28 06:51:02;;;;;;;7.57;6.50;;;;;;;5.38;100.00;102603.53;6181159;23;20047;-77
2022/03/28 06:53:31;;;;;;;8.13;7.20;;;;;;;5.36;100.00;102599.94;6194657;23;20454;-77
2022/03/28 06:56:01;;;;;;;8.55;7.40;;;;;;;5.37;100.00;102602.63;6170694;23;20477;-77
2022/03/28 06:58:30;;;;;;;10.80;7.53;;;;;;;5.40;100.00;102597.56;6181119;23;20013;-77
2022/03/28 07:00:58;;;;;;;12.23;8.73;;;;;;;5.42;100.00;102595.91;6133407;23;20229;-77
2022/03/28 07:03:28;;;;;;;12.70;8.00;;;;;;;5.46;100.00;102602.19;6208775;23;20017;-77
2022/03/28 07:05:57;;;;;;;10.98;9.35;;;;;;;5.48;100.00;102592.72;6181362;23;20020;-77
2022/03/28 07:08:26;;;;;;;11.20;9.45;;;;;;;5.51;100.00;102586.78;6209782;23;20017;-77
2022/03/28 07:10:55;;;;;;;12.52;8.23;;;;;;;5.54;100.00;102589.53;6174668;23;20032;-77
2022/03/28 07:13:24;;;;;;;13.50;9.65;;;;;;;5.59;100.00;102588.06;6188506;23;20351;-78
2022/03/28 07:15:52;;;;;;;13.43;12.02;;;;;;;5.62;100.00;102585.59;6189731;23;20047;-77
2022/03/28 07:18:22;;;;;;;12.80;10.85;;;;;;;5.64;100.00;102581.34;6208176;23;20031;-77
2022/03/28 07:20:51;;;;;;;13.77;11.43;;;;;;;5.69;100.00;102578.97;6142447;23;20031;-77
2022/03/28 07:23:19;;;;;;;17.17;12.38;;;;;;;5.74;100.00;102572.25;6160955;23;20262;-77
2022/03/28 07:25:48;;;;;;;15.93;11.13;;;;;;;5.77;100.00;102569.81;6197083;23;20021;-77
2022/03/28 07:28:17;;;;;;;12.07;10.32;;;;;;;5.78;100.00;102551.53;6203604;23;20025;-77
2022/03/28 07:30:46;;;;;;;14.13;10.73;;;;;;;5.83;100.00;102555.28;6200199;23;20454;-77
2022/03/28 07:33:14;;;;;;;17.38;10.65;;;;;;;5.86;100.00;102565.94;6180793;23;20023;-77
2022/03/28 07:35:45;;;;;;;16.60;10.73;;;;;;;5.90;100.00;102558.19;6156651;23;20024;-77
2022/03/28 07:38:14;;;;;;;14.93;10.93;;;;;;;5.92;100.00;102561.81;6158636;23;20020;-77
2022/03/28 07:40:45;;;;;;;14.18;10.40;;;;;;;5.94;100.00;102561.06;6181492;23;20021;-77
2022/03/28 07:43:14;;;;;;;15.20;11.57;;;;;;;5.98;100.00;102562.16;6188985;23;20024;-77
2022/03/28 07:45:43;;;;;;;12.45;9.63;;;;;;;6.01;100.00;102557.97;6183066;23;20024;-77
2022/03/28 07:48:12;;;;;;;17.10;11.07;;;;;;;6.04;100.00;102562.44;6196905;23;20021;-77
2022/03/28 07:50:40;;;;;;;21.20;15.70;;;;;;;6.07;100.00;102560.00;6182613;23;20040;-77
2022/03/28 07:53:09;;;;;;;25.10;15.75;;;;;;;6.09;100.00;102557.44;6207875;23;20206;-76
2022/03/28 07:55:39;;;;;;;23.00;15.63;;;;;;;6.12;100.00;102555.84;6169753;23;20024;-77
2022/03/28 07:58:09;;;;;;;26.52;17.60;;;;;;;6.16;100.00;102549.97;6212150;23;20509;-77
2022/03/28 08:00:37;;;;;;;24.33;16.17;;;;;;;6.18;100.00;102550.94;6160330;23;20339;-77
2022/03/28 08:03:06;;;;;;;28.08;17.95;;;;;;;6.20;100.00;102537.91;6190032;23;20441;-77
2022/03/28 08:05:35;;;;;;;24.33;16.05;;;;;;;6.21;100.00;102542.34;6202723;23;20024;-77
2022/03/28 08:08:05;;;;;;;23.80;15.23;;;;;;;6.26;100.00;102538.22;6201148;23;20694;-77
2022/03/28 08:10:34;;;;;;;16.27;11.77;;;;;;;6.30;100.00;102544.50;6185826;23;20028;-77
2022/03/28 08:13:02;;;;;;;16.50;11.75;;;;;;;6.32;100.00;102545.47;6178299;23;20270;-77
2022/03/28 08:15:31;;;;;;;13.45;9.82;;;;;;;6.34;100.00;102543.81;6179210;23;20429;-77
2022/03/28 08:18:00;;;;;;;13.45;10.02;;;;;;;6.37;100.00;102541.31;6161707;23;20333;-77
2022/03/28 08:20:29;;;;;;;10.75;8.30;;;;;;;6.41;100.00;102533.72;6204971;23;20484;-77
2022/03/28 08:22:59;;;;;;;12.10;8.48;;;;;;;6.47;100.00;102540.97;6186350;23;20238;-77
2022/03/28 08:25:27;;;;;;;10.93;8.40;;;;;;;6.55;100.00;102530.84;6209413;23;20031;-77
2022/03/28 08:27:56;;;;;;;9.70;7.72;;;;;;;6.58;100.00;102526.63;6175531;23;20232;-76
2022/03/28 08:30:24;;;;;;;9.57;8.23;;;;;;;6.63;100.00;102518.97;6152487;23;20028;-77
2022/03/28 08:32:55;;;;;;;10.70;8.82;;;;;;;6.66;100.00;102519.13;6197500;23;20268;-77
2022/03/28 08:35:25;;;;;;;10.23;9.20;;;;;;;6.72;100.00;102515.91;6193599;23;20339;-77
2022/03/28 08:37:53;;;;;;;10.00;8.18;;;;;;;6.75;100.00;102514.31;6201437;23;20570;-77
2022/03/28 08:40:22;;;;;;;8.68;7.18;;;;;;;6.82;100.00;102510.22;6203596;23;20023;-77
2022/03/28 08:42:51;;;;;;;10.45;8.07;;;;;;;6.89;100.00;102516.66;6178292;23;20042;-77
2022/03/28 08:45:20;;;;;;;14.32;9.25;;;;;;;6.94;100.00;102521.28;6161303;23;21104;-76
2022/03/28 08:47:49;;;;;;;12.18;8.18;;;;;;;6.99;100.00;102517.16;6210296;23;20182;-76
2022/03/28 08:50:40;;;;;;;7.80;7.00;;;;;;;7.02;100.00;102519.00;6199432;23;20016;-76
2022/03/28 08:53:11;;;;;;;9.45;7.70;;;;;;;7.00;100.00;102525.91;6177012;23;20028;-76
2022/03/28 08:55:41;;;;;;;9.93;8.07;;;;;;;7.00;100.00;102526.78;6207516;23;20201;-76
2022/03/28 08:58:11;;;;;;;11.38;7.47;;;;;;;7.00;100.00;102521.56;6234101;23;20758;-77
2022/03/28 09:00:40;;;;;;;8.25;7.22;;;;;;;7.04;100.00;102530.44;6234578;23;20458;-76
2022/03/28 09:03:08;;;;;;;7.70;6.65;;;;;;;7.03;100.00;102524.31;6207350;23;20024;-76
2022/03/28 09:05:39;;;;;;;8.75;7.40;;;;;;;7.05;100.00;102536.59;6200014;23;20024;-76
2022/03/28 09:08:09;;;;;;;7.82;7.10;;;;;;;7.02;100.00;102537.34;6171706;23;20024;-76
2022/03/28 09:10:47;;;;;;;10.48;7.25;;;;;;;7.01;100.00;102533.84;6216120;23;20228;-77
2022/03/28 09:13:16;;;;;;;8.35;7.47;;;;;;;7.06;100.00;102538.38;6204496;23;20454;-76
2022/03/28 09:15:51;;;;;;;9.52;6.82;;;;;;;7.09;100.00;102536.81;6211582;23;20028;-77
2022/03/28 09:18:32;;;;;;;9.05;7.20;;;;;;;7.14;100.00;102529.13;6210596;23;20024;-76
2022/03/28 09:21:11;;;;;;;10.98;7.68;;;;;;;7.18;100.00;102526.72;6179972;23;20032;-76
2022/03/28 09:23:44;;;;;;;9.93;8.00;;;;;;;7.20;100.00;102516.28;6236122;23;20020;-76
2022/03/28 09:26:23;;;;;;;11.05;7.55;;;;;;;7.23;100.00;102519.06;6216452;23;20020;-77
2022/03/28 09:28:58;;;;;;;17.48;7.75;;;;;;;7.27;100.00;102509.59;6234913;23;20020;-76
2022/03/28 09:31:36;;;;;;;12.68;7.90;;;;;;;7.32;100.00;102508.97;6208083;23;20142;-76
2022/03/28 09:34:19;;;;;;;9.73;7.95;;;;;;;7.36;100.00;102508.25;6212098;23;20525;-76
2022/03/28 09:36:48;;;;;;;9.73;7.75;;;;;;;7.39;100.00;102508.41;6202243;23;20083;-76
2022/03/28 09:39:20;;;;;;;11.65;7.80;;;;;;;7.42;100.00;102502.38;6174387;23;20031;-76
2022/03/28 09:42:06;;;;;;;13.52;9.18;;;;;;;7.45;100.00;102502.53;6244710;23;20019;-76
2022/03/28 09:44:39;;;;;;;14.13;11.35;;;;;;;7.53;100.00;102497.59;6231084;23;20020;-76
2022/03/28 09:47:19;;;;;;;14.02;11.48;;;;;;;7.57;100.00;102494.25;6198263;23;20313;-76
2022/03/28 09:49:50;;;;;;;19.80;14.67;;;;;;;7.60;100.00;102490.03;6211309;23;20024;-76
2022/03/28 09:52:20;;;;;;;;;;;;;;;7.61;100.00;102486.56;6226538;23;20024;-76
2022/03/28 09:54:57;;;;;;;17.65;13.95;;;;;;;7.67;100.00;102482.41;6211008;23;20352;-76
2022/03/28 09:57:31;;;;;;;18.52;14.75;;;;;;;7.68;100.00;102461.50;6244696;23;20043;-76
2022/03/28 10:00:09;;;;;;;22.45;15.38;;;;;;;7.72;100.00;102473.91;6176377;23;20149;-76
2022/03/28 10:02:38;;;;;;;20.45;14.65;;;;;;;7.79;100.00;102480.31;6239027;23;20369;-76
2022/03/28 10:05:08;;;;;;;17.70;14.77;;;;;;;7.82;100.00;102472.53;6178362;23;20027;-76
2022/03/28 10:07:37;;;;;;;17.45;14.57;;;;;;;7.85;100.00;102477.03;6198196;23;20466;-76
2022/03/28 10:10:06;;;;;;;16.98;12.73;;;;;;;7.85;100.00;102464.81;6212043;23;20416;-76
2022/03/28 10:12:35;;;;;;;17.30;12.87;;;;;;;7.81;100.00;102478.63;6202736;23;20028;-76
2022/03/28 10:15:04;;;;;;;16.38;12.60;;;;;;;7.80;100.00;102477.72;6235214;23;20477;-76
2022/03/28 10:17:32;;;;;;;17.58;13.45;;;;;;;7.83;100.00;102473.47;6235176;23;20304;-76
2022/03/28 10:20:02;;;;;;;19.20;13.60;;;;;;;7.84;100.00;102475.22;6212886;23;20023;-76
2022/03/28 10:22:53;;;;;;;20.92;13.45;;;;;;;7.81;100.00;102479.53;6162018;23;20055;-76
2022/03/28 10:25:24;;;;;;;18.80;14.15;;;;;;;7.85;100.00;102469.16;6225959;23;20023;-76
2022/03/28 10:27:53;;;;;;;21.08;15.45;;;;;;;7.89;100.00;102457.94;6190906;23;20046;-76
2022/03/28 10:30:30;;;;;;;17.30;13.52;;;;;;;7.92;100.00;102452.81;6207242;23;20024;-76
2022/03/28 10:33:21;;;;;;;17.33;13.38;;;;;;;7.95;100.00;102447.69;6199882;23;20454;-76
2022/03/28 10:36:23;;;;;;;19.15;13.82;;;;;;;7.96;100.00;102447.75;6192547;23;20402;-76
2022/03/28 10:38:52;;;;;;;16.33;12.57;;;;;;;7.99;100.00;102453.09;6221149;23;20050;-76
2022/03/28 10:41:21;;;;;;;18.83;13.05;;;;;;;8.03;100.00;102448.00;6198278;23;20350;-77
2022/03/28 10:43:50;;;;;;;18.92;13.00;;;;;;;8.07;100.00;102444.63;6178928;23;20024;-77
2022/03/28 10:46:19;;;;;;;18.13;13.35;;;;;;;8.13;100.00;102443.16;6182868;23;20418;-76
2022/03/28 10:48:58;;;;;;;16.90;11.70;;;;;;;8.20;100.00;102431.16;6188404;23;20603;-77
2022/03/28 10:51:29;;;;;;;19.85;14.07;;;;;;;8.26;100.00;102430.50;6236758;23;20446;-76
2022/03/28 10:54:01;;;;;;;18.65;15.73;;;;;;;8.31;100.00;102427.19;6242294;23;20016;-76
2022/03/28 10:56:32;;;;;;;19.95;15.75;;;;;;;8.35;100.00;102420.34;6218287;23;20027;-76
2022/03/28 10:59:12;;;;;;;19.02;15.40;;;;;;;8.38;100.00;102415.19;6236736;23;20026;-77
2022/03/28 11:01:46;;;;;;;20.50;15.52;;;;;;;8.48;100.00;102413.84;6203549;23;20021;-77
2022/03/28 11:04:24;;;;;;;16.98;14.93;;;;;;;8.56;100.00;102410.66;6209518;23;20020;-77
2022/03/28 11:07:00;;;;;;;16.17;12.23;;;;;;;8.66;100.00;102416.22;6215345;23;20457;-77
2022/03/28 11:09:32;;;;;;;17.08;12.82;;;;;;;8.73;100.00;102407.72;6243690;23;20051;-77
2022/03/28 11:12:09;;;;;;;17.35;13.80;;;;;;;8.80;100.00;102401.84;6198954;23;20031;-77
2022/03/28 11:14:50;;;;;;;15.40;12.40;;;;;;;8.83;100.00;102409.88;6238809;23;20509;-77
2022/03/28 11:17:23;;;;;;;18.23;14.13;;;;;;;8.85;100.00;102410.81;6203119;23;20836;-77
2022/03/28 11:19:53;;;;;;;16.80;14.05;;;;;;;8.88;100.00;102408.28;6242293;23;20027;-77
2022/03/28 11:22:37;;;;;;;17.45;13.85;;;;;;;8.90;100.00;102397.81;6238639;23;20020;-77
2022/03/28 11:25:44;;;;;;;15.00;12.48;;;;;;;8.97;100.00;102405.97;6244945;23;20442;-77
2022/03/28 11:28:22;;;;;;;18.48;12.70;;;;;;;9.02;100.00;102400.88;6200937;23;20149;-77
2022/03/28 11:31:02;;;;;;;15.68;11.65;;;;;;;9.02;100.00;102402.59;6242598;23;20023;-77
2022/03/28 11:33:35;;;;;;;18.05;11.05;;;;;;;9.01;100.00;102399.09;6236667;23;20016;-77
2022/03/28 11:36:06;;;;;;;19.83;13.40;;;;;;;9.02;100.00;102399.97;6214202;23;20008;-77